createdAt,value
2023-04-26T00:00:11.952Z,3.56
2023-04-26T00:01:11.932Z,3.60
2023-04-26T00:02:11.579Z,3.62
2023-04-26T00:03:11.516Z,3.64
2023-04-26T00:04:11.591Z,3.66
2023-04-26T00:05:11.815Z,3.67
2023-04-26T00:06:11.578Z,3.67
2023-04-26T00:07:11.648Z,3.66
2023-04-26T00:08:11.600Z,3.67
2023-04-26T00:09:11.741Z,3.66
2023-04-26T00:10:11.557Z,3.69
2023-04-26T00:11:11.859Z,3.69
2023-04-26T00:12:11.390Z,3.70
2023-04-26T00:13:11.821Z,3.73
2023-04-26T00:14:11.366Z,3.74
2023-04-26T00:15:11.384Z,3.74
2023-04-26T00:16:11.428Z,3.74
2023-04-26T00:17:11.348Z,3.81
2023-04-26T00:18:11.385Z,3.85
2023-04-26T00:19:11.348Z,3.84
2023-04-26T00:20:11.362Z,3.85
2023-04-26T00:21:11.308Z,3.88
2023-04-26T00:22:11.348Z,3.90
2023-04-26T00:23:11.324Z,3.87
2023-04-26T00:24:11.341Z,3.92
2023-04-26T00:25:11.370Z,3.87
2023-04-26T00:26:11.374Z,3.90
2023-04-26T00:27:11.406Z,3.94
2023-04-26T00:28:11.390Z,3.90
2023-04-26T00:29:11.404Z,3.92
2023-04-26T00:30:11.441Z,3.96
2023-04-26T00:31:11.449Z,3.94
2023-04-26T00:32:11.281Z,3.92
2023-04-26T00:33:11.233Z,3.92
2023-04-26T00:34:11.231Z,3.94
2023-04-26T00:35:11.284Z,3.91
2023-04-26T00:36:11.323Z,3.90
2023-04-26T00:37:11.263Z,3.90
2023-04-26T00:38:11.430Z,3.90
2023-04-26T00:39:11.505Z,3.92
2023-04-26T00:40:11.459Z,3.90
2023-04-26T00:41:12.637Z,3.91
2023-04-26T00:42:11.592Z,3.90
2023-04-26T00:43:11.585Z,3.88
2023-04-26T00:44:11.269Z,3.88
2023-04-26T00:45:11.615Z,3.91
2023-04-26T00:46:11.200Z,3.91
2023-04-26T00:47:11.640Z,3.92
2023-04-26T00:48:11.500Z,3.90
2023-04-26T00:49:11.155Z,3.94
2023-04-26T00:50:11.254Z,3.91
2023-04-26T00:51:11.499Z,3.92
2023-04-26T00:52:11.510Z,3.91
2023-04-26T00:53:11.491Z,3.90
2023-04-26T00:54:11.179Z,3.88
2023-04-26T00:55:11.173Z,3.90
2023-04-26T00:56:12.561Z,3.87
2023-04-26T00:57:11.525Z,3.88
2023-04-26T00:58:11.551Z,3.82
2023-04-26T00:59:11.578Z,3.82
2023-04-26T01:00:11.571Z,3.82
2023-04-26T01:01:11.111Z,3.85
2023-04-26T01:02:11.193Z,3.81
2023-04-26T01:03:11.250Z,3.81
2023-04-26T01:04:11.380Z,3.80
2023-04-26T01:05:11.278Z,3.76
2023-04-26T01:06:11.234Z,3.74
2023-04-26T01:07:11.380Z,3.76
2023-04-26T01:08:11.440Z,3.70
2023-04-26T01:09:11.003Z,3.72
2023-04-26T01:10:11.011Z,3.63
2023-04-26T01:11:11.078Z,3.62
2023-04-26T01:12:11.024Z,3.67
2023-04-26T01:13:11.025Z,3.66
2023-04-26T01:14:11.043Z,3.67
2023-04-26T01:15:11.047Z,3.59
2023-04-26T01:16:11.072Z,3.62
2023-04-26T01:17:11.153Z,3.56
2023-04-26T01:18:11.085Z,3.56
2023-04-26T01:19:11.121Z,3.55
2023-04-26T01:20:11.110Z,3.54
2023-04-26T01:21:11.122Z,3.56
2023-04-26T01:22:11.137Z,3.54
2023-04-26T01:23:11.148Z,3.51
2023-04-26T01:24:11.024Z,3.51
2023-04-26T01:25:11.177Z,3.45
2023-04-26T01:26:11.038Z,3.46
2023-04-26T01:27:11.203Z,3.46
2023-04-26T01:28:11.218Z,3.45
2023-04-26T01:29:10.860Z,3.41
2023-04-26T01:30:11.241Z,3.42
2023-04-26T01:31:10.979Z,3.42
2023-04-26T01:32:11.140Z,3.41
2023-04-26T01:33:10.871Z,3.41
2023-04-26T01:34:10.909Z,3.41
2023-04-26T01:35:10.965Z,3.37
2023-04-26T01:36:10.831Z,3.32
2023-04-26T01:37:10.853Z,3.25
2023-04-26T01:38:10.839Z,3.27
2023-04-26T01:39:11.264Z,3.22
2023-04-26T01:40:11.295Z,3.22
2023-04-26T01:41:11.372Z,3.20
2023-04-26T01:42:10.956Z,3.18
2023-04-26T01:43:11.415Z,3.18
2023-04-26T01:44:10.885Z,3.15
2023-04-26T01:45:11.439Z,3.18
2023-04-26T01:46:11.197Z,3.18
2023-04-26T01:47:11.100Z,3.23
2023-04-26T01:48:11.301Z,3.17
2023-04-26T01:49:11.488Z,3.20
2023-04-26T01:50:11.482Z,3.20
2023-04-26T01:51:11.177Z,3.20
2023-04-26T01:52:11.441Z,3.20
2023-04-26T01:53:11.535Z,3.15
2023-04-26T01:54:11.565Z,3.22
2023-04-26T01:55:11.031Z,3.15
2023-04-26T01:56:10.750Z,3.17
2023-04-26T01:57:11.525Z,3.14
2023-04-26T01:58:11.606Z,3.09
2023-04-26T01:59:10.873Z,3.09
2023-04-26T02:00:11.518Z,3.08
2023-04-26T02:01:10.813Z,3.05
2023-04-26T02:02:10.764Z,3.07
2023-04-26T02:03:10.801Z,3.05
2023-04-26T02:04:10.819Z,3.07
2023-04-26T02:05:10.920Z,3.00
2023-04-26T02:06:10.724Z,3.07
2023-04-26T02:07:10.694Z,2.99
2023-04-26T02:08:10.731Z,3.05
2023-04-26T02:09:10.627Z,3.08
2023-04-26T02:10:10.866Z,3.00
2023-04-26T02:11:10.877Z,2.99
2023-04-26T02:12:10.653Z,2.94
2023-04-26T02:13:10.956Z,2.94
2023-04-26T02:14:10.590Z,2.89
2023-04-26T02:15:11.088Z,2.89
2023-04-26T02:16:10.803Z,2.89
2023-04-26T02:17:11.178Z,2.91
2023-04-26T02:18:11.294Z,2.89
2023-04-26T02:19:10.667Z,2.91
2023-04-26T02:20:11.313Z,2.93
2023-04-26T02:21:11.357Z,2.93
2023-04-26T02:22:11.249Z,2.97
2023-04-26T02:23:10.519Z,2.96
2023-04-26T02:24:10.529Z,2.94
2023-04-26T02:25:11.403Z,2.94
2023-04-26T02:26:10.732Z,2.91
2023-04-26T02:27:10.562Z,2.90
2023-04-26T02:28:10.556Z,2.93
2023-04-26T02:29:10.493Z,2.96
2023-04-26T02:30:10.516Z,2.94
2023-04-26T02:31:10.571Z,2.96
2023-04-26T02:32:10.520Z,2.93
2023-04-26T02:33:10.526Z,2.94
2023-04-26T02:34:10.552Z,2.93
2023-04-26T02:35:10.554Z,2.91
2023-04-26T02:36:10.569Z,2.91
2023-04-26T02:37:10.593Z,2.93
2023-04-26T02:38:10.600Z,2.93
2023-04-26T02:39:10.608Z,2.93
2023-04-26T02:40:10.441Z,2.93
2023-04-26T02:41:10.626Z,2.86
2023-04-26T02:42:10.451Z,2.82
2023-04-26T02:43:10.500Z,2.79
2023-04-26T02:44:10.671Z,2.82
2023-04-26T02:45:10.556Z,2.81
2023-04-26T02:46:10.755Z,2.79
2023-04-26T02:47:10.587Z,2.81
2023-04-26T02:48:10.482Z,2.81
2023-04-26T02:49:10.733Z,2.82
2023-04-26T02:50:10.505Z,2.79
2023-04-26T02:51:10.758Z,2.79
2023-04-26T02:52:10.605Z,2.81
2023-04-26T02:53:10.794Z,2.78
2023-04-26T02:54:10.803Z,2.81
2023-04-26T02:55:10.812Z,2.81
2023-04-26T02:56:10.732Z,2.79
2023-04-26T02:57:10.835Z,2.81
2023-04-26T02:58:10.845Z,2.79
2023-04-26T02:59:10.348Z,2.76
2023-04-26T03:00:10.318Z,2.79
2023-04-26T03:01:10.429Z,2.76
2023-04-26T03:02:10.331Z,2.76
2023-04-26T03:03:10.551Z,2.76
2023-04-26T03:04:10.542Z,2.71
2023-04-26T03:05:10.312Z,2.72
2023-04-26T03:06:10.451Z,2.69
2023-04-26T03:07:10.475Z,2.71
2023-04-26T03:08:10.466Z,2.72
2023-04-26T03:09:10.685Z,2.72
2023-04-26T03:10:10.750Z,2.75
2023-04-26T03:11:10.789Z,2.75
2023-04-26T03:12:10.854Z,2.72
2023-04-26T03:13:10.286Z,2.73
2023-04-26T03:14:10.632Z,2.69
2023-04-26T03:15:11.109Z,2.69
2023-04-26T03:16:10.535Z,2.69
2023-04-26T03:17:10.260Z,2.69
2023-04-26T03:18:10.303Z,2.71
2023-04-26T03:19:10.209Z,2.69
2023-04-26T03:20:11.111Z,2.68
2023-04-26T03:21:10.969Z,2.63
2023-04-26T03:22:10.290Z,2.68
2023-04-26T03:23:10.175Z,2.69
2023-04-26T03:24:10.201Z,2.63
2023-04-26T03:25:10.380Z,2.68
2023-04-26T03:26:10.581Z,2.66
2023-04-26T03:27:10.528Z,2.65
2023-04-26T03:28:10.829Z,2.65
2023-04-26T03:29:10.130Z,2.61
2023-04-26T03:30:10.108Z,2.60
2023-04-26T03:31:10.179Z,2.58
2023-04-26T03:32:10.280Z,2.58
2023-04-26T03:33:10.349Z,2.57
2023-04-26T03:34:10.411Z,2.57
2023-04-26T03:35:10.582Z,2.57
2023-04-26T03:36:10.271Z,2.55
2023-04-26T03:37:10.629Z,2.54
2023-04-26T03:38:10.677Z,2.54
2023-04-26T03:39:10.766Z,2.50
2023-04-26T03:40:10.346Z,2.54
2023-04-26T03:41:10.424Z,2.53
2023-04-26T03:42:10.938Z,2.50
2023-04-26T03:43:11.009Z,2.53
2023-04-26T03:44:10.760Z,2.50
2023-04-26T03:45:10.894Z,2.43
2023-04-26T03:46:10.613Z,2.43
2023-04-26T03:47:10.048Z,2.45
2023-04-26T03:48:10.173Z,2.45
2023-04-26T03:49:10.379Z,2.48
2023-04-26T03:50:10.078Z,2.45
2023-04-26T03:51:10.073Z,2.45
2023-04-26T03:52:09.985Z,2.45
2023-04-26T03:53:09.958Z,2.48
2023-04-26T03:54:09.966Z,2.45
2023-04-26T03:55:09.986Z,2.45
2023-04-26T03:56:09.970Z,2.47
2023-04-26T03:57:09.990Z,2.43
2023-04-26T03:58:09.930Z,2.45
2023-04-26T03:59:09.982Z,2.43
2023-04-26T04:00:10.045Z,2.45
2023-04-26T04:01:10.085Z,2.50
2023-04-26T04:02:10.105Z,2.51
2023-04-26T04:03:10.310Z,2.50
2023-04-26T04:04:10.205Z,2.47
2023-04-26T04:05:09.991Z,2.50
2023-04-26T04:06:10.104Z,2.51
2023-04-26T04:07:10.119Z,2.47
2023-04-26T04:08:10.124Z,2.48
2023-04-26T04:09:10.142Z,2.51
2023-04-26T04:10:10.151Z,2.50
2023-04-26T04:11:09.985Z,2.51
2023-04-26T04:12:10.183Z,2.51
2023-04-26T04:13:10.193Z,2.51
2023-04-26T04:14:10.137Z,2.53
2023-04-26T04:15:09.823Z,2.50
2023-04-26T04:16:09.958Z,2.50
2023-04-26T04:17:10.254Z,2.50
2023-04-26T04:18:10.322Z,2.47
2023-04-26T04:19:10.276Z,2.48
2023-04-26T04:20:10.291Z,2.48
2023-04-26T04:21:10.304Z,2.50
2023-04-26T04:22:10.308Z,2.45
2023-04-26T04:23:10.183Z,2.45
2023-04-26T04:24:10.335Z,2.45
2023-04-26T04:25:09.781Z,2.42
2023-04-26T04:26:10.368Z,2.40
2023-04-26T04:27:10.179Z,2.37
2023-04-26T04:28:09.720Z,2.36
2023-04-26T04:29:09.706Z,2.36
2023-04-26T04:30:09.744Z,2.39
2023-04-26T04:31:09.739Z,2.40
2023-04-26T04:32:09.841Z,2.42
2023-04-26T04:33:09.774Z,2.45
2023-04-26T04:34:09.994Z,2.47
2023-04-26T04:35:09.920Z,2.48
2023-04-26T04:36:09.752Z,2.51
2023-04-26T04:37:09.702Z,2.51
2023-04-26T04:38:09.656Z,2.53
2023-04-26T04:39:09.669Z,2.55
2023-04-26T04:40:11.533Z,2.55
2023-04-26T04:41:09.693Z,2.61
2023-04-26T04:42:09.713Z,2.61
2023-04-26T04:43:09.704Z,2.65
2023-04-26T04:44:09.615Z,2.69
2023-04-26T04:45:10.019Z,2.69
2023-04-26T04:46:11.350Z,2.69
2023-04-26T04:47:09.621Z,2.72
2023-04-26T04:48:09.852Z,2.72
2023-04-26T04:49:09.839Z,2.73
2023-04-26T04:50:09.730Z,2.75
2023-04-26T04:51:09.834Z,2.78
2023-04-26T04:52:09.648Z,2.76
2023-04-26T04:53:09.849Z,2.81
2023-04-26T04:54:09.863Z,2.84
2023-04-26T04:55:10.056Z,2.90
2023-04-26T04:56:09.886Z,2.89
2023-04-26T04:57:09.564Z,2.90
2023-04-26T04:58:09.599Z,2.91
2023-04-26T04:59:09.529Z,2.96
2023-04-26T05:00:09.640Z,3.00
2023-04-26T05:01:09.797Z,3.05
2023-04-26T05:02:09.917Z,3.05
2023-04-26T05:03:09.639Z,3.05
2023-04-26T05:04:09.616Z,3.09
2023-04-26T05:05:10.350Z,3.11
2023-04-26T05:06:10.018Z,3.14
2023-04-26T05:07:09.487Z,3.15
2023-04-26T05:08:10.048Z,3.15
2023-04-26T05:09:09.850Z,3.22
2023-04-26T05:10:10.068Z,3.26
2023-04-26T05:11:09.536Z,3.29
2023-04-26T05:12:09.721Z,3.30
2023-04-26T05:13:09.614Z,3.33
2023-04-26T05:14:09.904Z,3.37
2023-04-26T05:15:10.205Z,3.37
2023-04-26T05:16:09.718Z,3.46
2023-04-26T05:17:09.580Z,3.46
2023-04-26T05:18:09.927Z,3.49
2023-04-26T05:19:10.099Z,3.52
2023-04-26T05:20:10.203Z,3.56
2023-04-26T05:21:09.818Z,3.59
2023-04-26T05:22:09.503Z,3.62
2023-04-26T05:23:09.647Z,3.69
2023-04-26T05:24:09.592Z,3.69
2023-04-26T05:25:09.499Z,3.69
2023-04-26T05:26:09.551Z,3.72
2023-04-26T05:27:09.379Z,3.76
2023-04-26T05:28:09.393Z,3.81
2023-04-26T05:29:09.467Z,3.82
2023-04-26T05:30:09.336Z,3.87
2023-04-26T05:31:11.258Z,3.96
2023-04-26T05:32:11.087Z,4.00
2023-04-26T05:33:09.392Z,4.03
2023-04-26T05:34:09.337Z,4.10
2023-04-26T05:35:09.394Z,4.09
2023-04-26T05:36:09.421Z,4.13
2023-04-26T05:37:09.420Z,4.17
2023-04-26T05:38:09.342Z,4.21
2023-04-26T05:40:35.301Z,4.28
2023-04-26T05:41:35.383Z,4.34
2023-04-26T05:42:35.488Z,4.38
2023-04-26T05:43:35.519Z,4.43
2023-04-26T05:44:35.531Z,4.46
2023-04-26T05:45:35.432Z,4.51
2023-04-26T05:46:35.549Z,4.57
2023-04-26T05:47:35.461Z,4.59
2023-04-26T05:48:41.956Z,4.61
2023-04-26T05:49:40.717Z,4.64
2023-04-26T05:50:35.163Z,4.67
2023-04-26T05:51:35.457Z,4.74
2023-04-26T05:52:35.306Z,4.82
2023-04-26T05:53:35.640Z,4.82
2023-04-26T05:54:35.257Z,4.89
2023-04-26T05:55:35.246Z,4.94
2023-04-26T05:56:35.262Z,4.93
2023-04-26T05:57:35.187Z,4.96
2023-04-26T05:58:35.144Z,4.98
2023-04-26T05:59:35.231Z,4.98
2023-04-26T06:00:35.111Z,5.01
2023-04-26T06:01:35.197Z,5.04
2023-04-26T06:02:35.633Z,5.04
2023-04-26T06:03:35.828Z,5.04
2023-04-26T06:04:35.299Z,5.04
2023-04-26T06:05:35.182Z,5.04
2023-04-26T06:06:35.790Z,5.06
2023-04-26T06:07:35.134Z,5.09
2023-04-26T06:08:35.327Z,5.14
2023-04-26T06:09:35.563Z,5.19
2023-04-26T06:10:35.859Z,5.25
2023-04-26T06:11:35.875Z,5.27
2023-04-26T06:12:35.224Z,5.30
2023-04-26T06:13:35.048Z,5.34
2023-04-26T06:14:35.513Z,5.34
2023-04-26T06:15:35.000Z,5.40
2023-04-26T06:16:35.064Z,5.43
2023-04-26T06:17:35.016Z,5.43
2023-04-26T06:18:35.058Z,5.47
2023-04-26T06:19:35.135Z,5.47
2023-04-26T06:20:35.067Z,5.55
2023-04-26T06:21:35.055Z,5.69
2023-04-26T06:22:35.062Z,5.72
2023-04-26T06:23:35.079Z,5.72
2023-04-26T06:24:35.097Z,5.72
2023-04-26T06:25:34.965Z,5.77
2023-04-26T06:26:34.958Z,5.82
2023-04-26T06:27:35.044Z,5.91
2023-04-26T06:28:34.929Z,5.98
2023-04-26T06:29:35.215Z,5.97
2023-04-26T06:30:35.223Z,6.02
2023-04-26T06:31:35.218Z,6.06
2023-04-26T06:32:35.224Z,6.03
2023-04-26T06:33:35.207Z,6.00
2023-04-26T06:34:35.239Z,6.02
2023-04-26T06:35:34.911Z,5.98
2023-04-26T06:36:34.905Z,5.95
2023-04-26T06:37:35.260Z,5.95
2023-04-26T06:38:35.292Z,5.95
2023-04-26T06:39:36.313Z,5.98
2023-04-26T06:40:34.834Z,6.00
2023-04-26T06:41:35.106Z,6.08
2023-04-26T06:42:35.294Z,5.98
2023-04-26T06:43:35.301Z,5.84
2023-04-26T06:44:34.820Z,5.93
2023-04-26T06:45:34.992Z,6.02
2023-04-26T06:46:35.471Z,6.12
2023-04-26T06:47:35.389Z,6.11
2023-04-26T06:48:34.788Z,6.12
2023-04-26T06:49:34.796Z,6.11
2023-04-26T06:50:34.792Z,6.08
2023-04-26T06:51:35.019Z,6.03
2023-04-26T06:52:35.104Z,6.08
2023-04-26T06:53:35.294Z,6.13
2023-04-26T06:54:37.802Z,6.25
2023-04-26T06:55:34.791Z,6.43
2023-04-26T06:56:34.972Z,6.64
2023-04-26T06:57:34.947Z,6.73
2023-04-26T06:58:34.847Z,6.73
2023-04-26T06:59:34.702Z,6.78
2023-04-26T07:00:35.182Z,6.81
2023-04-26T07:01:35.228Z,6.83
2023-04-26T07:02:35.409Z,6.79
2023-04-26T07:03:34.960Z,6.78
2023-04-26T07:04:35.498Z,6.74
2023-04-26T07:05:35.410Z,6.60
2023-04-26T07:06:35.063Z,6.61
2023-04-26T07:07:34.713Z,6.64
2023-04-26T07:08:35.608Z,6.60
2023-04-26T07:09:35.597Z,6.52
2023-04-26T07:10:35.059Z,6.56
2023-04-26T07:11:35.213Z,6.55
2023-04-26T07:12:34.795Z,6.64
2023-04-26T07:13:34.625Z,6.47
2023-04-26T07:14:37.138Z,6.47
2023-04-26T07:15:34.867Z,6.55
2023-04-26T07:16:35.491Z,6.63
2023-04-26T07:17:34.636Z,6.68
2023-04-26T07:18:34.584Z,6.73
2023-04-26T07:19:34.606Z,6.74
2023-04-26T07:20:34.649Z,6.75
2023-04-26T07:21:34.673Z,6.65
2023-04-26T07:22:34.745Z,6.63
2023-04-26T07:23:34.607Z,6.60
2023-04-26T07:24:34.845Z,6.70
2023-04-26T07:25:34.595Z,6.83
2023-04-26T07:26:34.640Z,6.92
2023-04-26T07:27:34.684Z,7.01
2023-04-26T07:28:34.721Z,7.08
2023-04-26T07:29:34.804Z,7.18
2023-04-26T07:30:34.509Z,7.24
2023-04-26T07:31:34.926Z,7.18
2023-04-26T07:32:34.614Z,7.06
2023-04-26T07:33:34.708Z,7.00
2023-04-26T07:34:34.465Z,7.04
2023-04-26T07:35:34.463Z,7.19
2023-04-26T07:36:34.489Z,7.34
2023-04-26T07:37:34.495Z,7.46
2023-04-26T07:38:34.500Z,7.58
2023-04-26T07:39:34.442Z,7.64
2023-04-26T07:40:34.517Z,7.61
2023-04-26T07:41:34.532Z,7.66
2023-04-26T07:42:34.536Z,7.68
2023-04-26T07:43:34.565Z,7.73
2023-04-26T07:44:34.620Z,7.71
2023-04-26T07:45:34.618Z,7.68
2023-04-26T07:46:34.600Z,7.84
2023-04-26T07:47:34.638Z,7.87
2023-04-26T07:48:34.625Z,7.81
2023-04-26T07:49:34.633Z,7.98
2023-04-26T07:50:34.514Z,8.09
2023-04-26T07:51:34.375Z,8.10
2023-04-26T07:52:34.378Z,8.01
2023-04-26T07:53:34.346Z,7.99
2023-04-26T07:54:34.424Z,8.05
2023-04-26T07:55:34.396Z,8.04
2023-04-26T07:56:34.418Z,7.99
2023-04-26T07:57:34.355Z,8.12
2023-04-26T07:58:34.440Z,8.10
2023-04-26T07:59:34.735Z,8.17
2023-04-26T08:00:34.813Z,8.13
2023-04-26T08:01:34.472Z,8.05
2023-04-26T08:02:44.497Z,7.99
2023-04-26T08:03:35.020Z,8.01
2023-04-26T08:04:34.953Z,8.06
2023-04-26T08:05:34.547Z,8.09
2023-04-26T08:06:34.664Z,8.14
2023-04-26T08:07:34.870Z,8.26
2023-04-26T08:08:34.874Z,8.28
2023-04-26T08:09:34.300Z,8.20
2023-04-26T08:10:34.631Z,8.19
2023-04-26T08:11:34.460Z,8.16
2023-04-26T08:12:34.937Z,8.23
2023-04-26T08:13:34.938Z,8.20
2023-04-26T08:14:34.509Z,8.29
2023-04-26T08:15:34.210Z,8.39
2023-04-26T08:16:34.533Z,8.31
2023-04-26T08:17:34.716Z,8.20
2023-04-26T08:18:34.195Z,8.23
2023-04-26T08:19:34.234Z,8.26
2023-04-26T08:20:34.152Z,8.28
2023-04-26T08:21:34.161Z,8.37
2023-04-26T08:22:34.170Z,8.39
2023-04-26T08:23:34.212Z,8.62
2023-04-26T08:24:34.291Z,8.77
2023-04-26T08:25:34.358Z,8.67
2023-04-26T08:26:34.430Z,8.60
2023-04-26T08:27:34.110Z,8.53
2023-04-26T08:28:34.414Z,8.44
2023-04-26T08:29:34.241Z,8.42
2023-04-26T08:30:34.522Z,8.38
2023-04-26T08:31:34.747Z,8.32
2023-04-26T08:32:34.527Z,8.26
2023-04-26T08:33:34.052Z,8.10
2023-04-26T08:34:34.047Z,8.13
2023-04-26T08:35:34.946Z,8.17
2023-04-26T08:36:34.260Z,8.17
2023-04-26T08:37:34.776Z,8.28
2023-04-26T08:38:34.524Z,8.32
2023-04-26T08:39:34.734Z,8.23
2023-04-26T08:40:34.042Z,8.19
2023-04-26T08:41:34.476Z,8.09
2023-04-26T08:42:36.320Z,8.13
2023-04-26T08:43:34.712Z,8.10
2023-04-26T08:44:34.816Z,8.04
2023-04-26T08:45:33.999Z,8.09
2023-04-26T08:46:34.901Z,8.16
2023-04-26T08:47:34.380Z,8.21
2023-04-26T08:48:33.976Z,8.38
2023-04-26T08:49:33.948Z,8.52
2023-04-26T08:50:33.986Z,8.52
2023-04-26T08:51:33.956Z,8.53
2023-04-26T08:52:34.098Z,8.55
2023-04-26T08:53:34.134Z,8.52
2023-04-26T08:54:34.212Z,8.63
2023-04-26T08:55:34.299Z,8.63
2023-04-26T08:56:34.338Z,8.68
2023-04-26T08:57:34.424Z,8.49
2023-04-26T08:58:33.912Z,8.29
2023-04-26T08:59:34.015Z,8.19
2023-04-26T09:00:33.910Z,8.12
2023-04-26T09:01:33.935Z,8.14
2023-04-26T09:02:34.034Z,8.20
2023-04-26T09:03:33.981Z,8.20
2023-04-26T09:04:34.175Z,8.14
2023-04-26T09:05:33.851Z,7.94
2023-04-26T09:06:33.857Z,7.86
2023-04-26T09:07:33.857Z,7.77
2023-04-26T09:08:33.824Z,7.76
2023-04-26T09:09:33.826Z,7.73
2023-04-26T09:10:33.831Z,7.58
2023-04-26T09:11:33.890Z,7.42
2023-04-26T09:12:33.844Z,7.31
2023-04-26T09:13:33.854Z,7.24
2023-04-26T09:14:33.869Z,7.10
2023-04-26T09:15:33.883Z,6.97
2023-04-26T09:16:33.808Z,7.01
2023-04-26T09:17:33.785Z,7.00
2023-04-26T09:18:33.784Z,7.07
2023-04-26T09:19:33.748Z,7.21
2023-04-26T09:20:33.787Z,7.31
2023-04-26T09:21:33.808Z,7.40
2023-04-26T09:22:33.784Z,7.36
2023-04-26T09:23:33.945Z,7.37
2023-04-26T09:24:33.997Z,7.44
2023-04-26T09:25:34.020Z,7.52
2023-04-26T09:26:34.027Z,7.69
2023-04-26T09:27:33.907Z,7.71
2023-04-26T09:28:33.704Z,7.77
2023-04-26T09:29:34.109Z,7.80
2023-04-26T09:30:33.710Z,7.98
2023-04-26T09:31:34.037Z,8.17
2023-04-26T09:32:33.831Z,8.28
2023-04-26T09:33:33.697Z,8.49
2023-04-26T09:34:33.893Z,8.75
2023-04-26T09:35:33.651Z,9.22
2023-04-26T09:36:33.674Z,9.19
2023-04-26T09:37:34.480Z,9.09
2023-04-26T09:38:33.641Z,8.90
2023-04-26T09:39:33.646Z,9.08
2023-04-26T09:40:33.595Z,9.34
2023-04-26T09:41:33.583Z,9.41
2023-04-26T09:42:33.602Z,9.59
2023-04-26T09:43:35.823Z,9.37
2023-04-26T09:44:33.681Z,9.04
2023-04-26T09:45:33.555Z,8.81
2023-04-26T09:46:33.745Z,8.77
2023-04-26T09:47:33.795Z,8.71
2023-04-26T09:48:33.586Z,8.67
2023-04-26T09:49:33.643Z,8.71
2023-04-26T09:50:33.775Z,8.86
2023-04-26T09:51:33.807Z,8.80
2023-04-26T09:52:33.740Z,8.65
2023-04-26T09:53:33.737Z,8.62
2023-04-26T09:54:33.907Z,8.60
2023-04-26T09:55:35.698Z,8.62
2023-04-26T09:56:33.960Z,8.70
2023-04-26T09:57:33.666Z,8.80
2023-04-26T09:58:33.987Z,8.88
2023-04-26T09:59:33.983Z,9.08
2023-04-26T10:00:33.612Z,9.12
2023-04-26T10:01:34.162Z,8.99
2023-04-26T10:02:33.648Z,8.85
2023-04-26T10:03:34.148Z,8.78
2023-04-26T10:04:33.927Z,8.75
2023-04-26T10:05:34.134Z,8.67
2023-04-26T10:06:33.479Z,8.65
2023-04-26T10:07:33.946Z,8.63
2023-04-26T10:08:33.440Z,8.77
2023-04-26T10:09:34.007Z,8.83
2023-04-26T10:10:33.379Z,8.83
2023-04-26T10:11:33.602Z,8.83
2023-04-26T10:12:33.984Z,8.80
2023-04-26T10:13:33.546Z,8.75
2023-04-26T10:14:34.113Z,8.78
2023-04-26T10:15:33.483Z,8.67
2023-04-26T10:16:33.350Z,8.56
2023-04-26T10:17:33.423Z,8.56
2023-04-26T10:18:33.422Z,8.68
2023-04-26T10:19:33.351Z,8.74
2023-04-26T10:20:33.365Z,8.68
2023-04-26T10:21:33.329Z,8.65
2023-04-26T10:22:33.497Z,8.68
2023-04-26T10:23:33.563Z,8.68
2023-04-26T10:24:33.636Z,8.65
2023-04-26T10:25:33.536Z,8.65
2023-04-26T10:26:33.540Z,8.74
2023-04-26T10:27:33.799Z,8.88
2023-04-26T10:28:33.772Z,8.99
2023-04-26T10:29:33.240Z,8.95
2023-04-26T10:30:33.265Z,8.92
2023-04-26T10:31:33.313Z,9.09
2023-04-26T10:32:33.280Z,9.24
2023-04-26T10:33:33.301Z,9.34
2023-04-26T10:34:33.328Z,9.60
2023-04-26T10:35:33.205Z,9.62
2023-04-26T10:36:33.216Z,9.70
2023-04-26T10:37:33.200Z,9.72
2023-04-26T10:38:33.216Z,9.93
2023-04-26T10:39:33.184Z,10.06
2023-04-26T10:40:33.244Z,9.98
2023-04-26T10:41:33.272Z,10.18
2023-04-26T10:42:33.282Z,10.52
2023-04-26T10:43:33.296Z,10.58
2023-04-26T10:44:33.184Z,10.68
2023-04-26T10:45:33.330Z,11.03
2023-04-26T10:46:33.213Z,11.43
2023-04-26T10:47:33.226Z,11.30
2023-04-26T10:48:33.254Z,11.08
2023-04-26T10:49:33.334Z,11.00
2023-04-26T10:50:33.379Z,10.75
2023-04-26T10:51:33.446Z,10.62
2023-04-26T10:52:33.434Z,10.76
2023-04-26T10:53:33.105Z,10.70
2023-04-26T10:54:33.442Z,10.45
2023-04-26T10:55:33.305Z,10.30
2023-04-26T10:56:33.471Z,9.99
2023-04-26T10:57:33.160Z,9.87
2023-04-26T10:58:33.511Z,9.69
2023-04-26T10:59:43.251Z,9.67
2023-04-26T11:00:33.319Z,9.66
2023-04-26T11:01:33.218Z,9.67
2023-04-26T11:02:33.356Z,9.69
2023-04-26T11:03:33.367Z,9.84
2023-04-26T11:04:33.616Z,10.03
2023-04-26T11:05:33.030Z,10.16
2023-04-26T11:06:33.002Z,10.24
2023-04-26T11:07:33.015Z,10.41
2023-04-26T11:08:33.002Z,10.39
2023-04-26T11:09:33.717Z,10.20
2023-04-26T11:10:35.692Z,10.14
2023-04-26T11:11:33.655Z,10.01
2023-04-26T11:12:33.036Z,10.08
2023-04-26T11:13:33.043Z,9.93
2023-04-26T11:14:32.964Z,9.75
2023-04-26T11:15:33.148Z,9.75
2023-04-26T11:16:33.090Z,9.80
2023-04-26T11:17:33.109Z,10.01
2023-04-26T11:18:32.985Z,10.06
2023-04-26T11:19:32.974Z,10.06
2023-04-26T11:20:32.972Z,10.01
2023-04-26T11:21:33.070Z,9.93
2023-04-26T11:22:32.981Z,9.99
2023-04-26T11:23:33.219Z,10.14
2023-04-26T11:24:33.306Z,10.06
2023-04-26T11:25:32.987Z,10.02
2023-04-26T11:26:32.885Z,10.03
2023-04-26T11:27:34.309Z,10.06
2023-04-26T11:28:34.339Z,10.08
2023-04-26T11:29:32.939Z,10.01
2023-04-26T11:30:33.242Z,10.03
2023-04-26T11:31:32.863Z,10.08
2023-04-26T11:32:32.854Z,10.08
2023-04-26T11:33:32.828Z,10.21
2023-04-26T11:34:32.884Z,10.31
2023-04-26T11:35:32.896Z,10.52
2023-04-26T11:36:33.458Z,10.52
2023-04-26T11:37:32.814Z,10.57
2023-04-26T11:38:33.002Z,10.46
2023-04-26T11:40:59.198Z,10.18
2023-04-26T11:41:59.171Z,10.03
2023-04-26T11:42:59.186Z,9.91
2023-04-26T11:43:59.275Z,9.84
2023-04-26T11:44:59.222Z,9.85
2023-04-26T11:45:58.694Z,9.80
2023-04-26T11:46:58.737Z,9.70
2023-04-26T11:47:58.855Z,9.60
2023-04-26T11:48:58.678Z,9.66
2023-04-26T11:49:58.680Z,9.66
2023-04-26T11:50:58.682Z,9.81
2023-04-26T11:51:58.686Z,9.84
2023-04-26T11:52:58.742Z,9.78
2023-04-26T11:53:58.772Z,9.80
2023-04-26T11:54:58.817Z,9.80
2023-04-26T11:55:58.869Z,9.73
2023-04-26T11:56:58.919Z,9.77
2023-04-26T11:57:58.848Z,9.67
2023-04-26T11:58:58.684Z,9.60
2023-04-26T11:59:58.707Z,9.55
2023-04-26T12:00:58.617Z,9.67
2023-04-26T12:01:58.639Z,9.77
2023-04-26T12:02:58.886Z,9.90
2023-04-26T12:03:58.737Z,10.10
2023-04-26T12:04:58.761Z,10.41
2023-04-26T12:05:59.120Z,10.39
2023-04-26T12:06:59.252Z,10.20
2023-04-26T12:07:59.462Z,10.18
2023-04-26T12:08:59.373Z,10.24
2023-04-26T12:10:00.673Z,10.18
2023-04-26T12:10:59.127Z,10.10
2023-04-26T12:11:59.330Z,10.12
2023-04-26T12:12:59.500Z,10.21
2023-04-26T12:13:58.574Z,10.36
2023-04-26T12:14:58.501Z,10.65
2023-04-26T12:15:58.544Z,10.73
2023-04-26T12:16:58.643Z,10.76
2023-04-26T12:17:58.687Z,10.85
2023-04-26T12:18:58.703Z,10.80
2023-04-26T12:19:58.762Z,10.82
2023-04-26T12:20:58.809Z,10.82
2023-04-26T12:21:58.763Z,10.95
2023-04-26T12:22:58.928Z,11.00
2023-04-26T12:23:58.991Z,10.90
2023-04-26T12:24:59.037Z,10.82
2023-04-26T12:25:58.509Z,10.65
2023-04-26T12:27:00.272Z,10.70
2023-04-26T12:27:58.961Z,10.72
2023-04-26T12:28:58.891Z,10.65
2023-04-26T12:29:59.144Z,10.36
2023-04-26T12:30:59.302Z,10.31
2023-04-26T12:31:58.610Z,10.28
2023-04-26T12:33:09.117Z,10.30
2023-04-26T12:33:58.352Z,10.28
2023-04-26T12:34:58.362Z,10.27
2023-04-26T12:35:58.372Z,10.24
2023-04-26T12:36:58.442Z,10.24
2023-04-26T12:37:58.489Z,10.26
2023-04-26T12:38:58.412Z,10.34
2023-04-26T12:39:58.496Z,10.34
2023-04-26T12:40:58.499Z,10.20
2023-04-26T12:41:58.338Z,10.26
2023-04-26T12:42:58.402Z,10.36
2023-04-26T12:43:58.312Z,10.46
2023-04-26T12:44:58.351Z,10.61
2023-04-26T12:45:58.371Z,10.65
2023-04-26T12:46:58.297Z,10.72
2023-04-26T12:47:58.547Z,10.78
2023-04-26T12:48:58.248Z,10.83
2023-04-26T12:49:58.348Z,11.00
2023-04-26T12:50:58.607Z,11.15
2023-04-26T12:51:59.745Z,11.05
2023-04-26T12:52:58.592Z,11.09
2023-04-26T12:53:58.642Z,11.08
2023-04-26T12:54:58.354Z,11.25
2023-04-26T12:55:58.689Z,11.52
2023-04-26T12:56:58.692Z,11.61
2023-04-26T12:57:58.642Z,11.46
2023-04-26T12:58:58.339Z,11.46
2023-04-26T12:59:58.330Z,11.46
2023-04-26T13:00:58.460Z,11.49
2023-04-26T13:01:58.821Z,11.51
2023-04-26T13:02:58.583Z,11.70
2023-04-26T13:03:58.827Z,11.84
2023-04-26T13:04:59.032Z,11.85
2023-04-26T13:05:58.157Z,11.87
2023-04-26T13:06:58.769Z,11.76
2023-04-26T13:07:58.216Z,11.91
2023-04-26T13:08:58.792Z,12.14
2023-04-26T13:09:58.530Z,12.36
2023-04-26T13:10:58.479Z,12.28
2023-04-26T13:11:58.190Z,12.13
2023-04-26T13:12:58.091Z,11.89
2023-04-26T13:13:58.142Z,11.64
2023-04-26T13:14:58.148Z,11.48
2023-04-26T13:15:58.327Z,11.37
2023-04-26T13:16:58.348Z,11.48